Time;durP1;ratioP1;P1;durP2;ratioP2;P2;SDS_P1;SDS_P2;PMS_P1;PMS_P2;Temp;Humidity;BMP_temperature;BMP_pressure;BME280_temperature;BME280_humidity;BME280_pressure;Samples;Min_cycle;Max_cycle;Signal;HPM_P1;HPM_P2
2021/03/14 00:01:15;;;;;;;2.23;1.10;;;;;;;;;;5097156;28;20771;-74
2021/03/14 00:03:43;;;;;;;26.83;18.33;;;;;;;;;;5097747;28;20542;-74
2021/03/14 00:06:10;;;;;;;23.77;19.23;;;;;;;;;;5097695;28;20755;-74
2021/03/14 00:08:39;;;;;;;19.47;17.83;;;;;;;;;;5091094;28;20461;-75
2021/03/14 00:11:10;;;;;;;10.37;5.70;;;;;;;;;;5082605;28;20806;-74
2021/03/14 00:13:38;;;;;;;12.70;11.63;;;;;;;;;;5091580;28;20486;-75
2021/03/14 00:16:07;;;;;;;1.93;1.40;;;;;;;;;;5097807;28;20479;-74
2021/03/14 00:18:35;;;;;;;1.90;1.40;;;;;;;;;;5097564;28;20493;-74
2021/03/14 00:21:04;;;;;;;2.33;1.30;;;;;;;;;;5098956;28;20519;-74
2021/03/14 00:23:33;;;;;;;1.17;0.73;;;;;;;;;;5097896;28;20454;-74
2021/03/14 00:26:01;;;;;;;1.73;1.17;;;;;;;;;;5099393;28;20465;-74
2021/03/14 00:28:29;;;;;;;1.47;0.83;;;;;;;;;;5099075;28;20456;-74
2021/03/14 00:30:58;;;;;;;3.13;1.63;;;;;;;;;;5095061;28;20665;-73
2021/03/14 00:33:26;;;;;;;2.30;1.13;;;;;;;;;;5083385;28;20739;-72
2021/03/14 00:35:53;;;;;;;5.17;4.67;;;;;;;;;;5086327;28;20501;-73
2021/03/14 00:38:26;;;;;;;5.10;3.17;;;;;;;;;;5090278;28;20461;-74
2021/03/14 00:40:53;;;;;;;2.90;1.17;;;;;;;;;;5080984;28;20492;-73
2021/03/14 00:43:20;;;;;;;2.80;0.97;;;;;;;;;;5084120;28;20853;-74
2021/03/14 00:45:48;;;;;;;1.40;1.10;;;;;;;;;;5083067;28;20454;-74
2021/03/14 00:48:18;;;;;;;2.70;1.57;;;;;;;;;;5078298;28;20507;-74
2021/03/14 00:50:45;;;;;;;2.30;1.57;;;;;;;;;;5077425;28;20474;-73
2021/03/14 00:53:12;;;;;;;3.20;2.77;;;;;;;;;;5078067;28;20469;-74
2021/03/14 00:55:41;;;;;;;4.60;1.37;;;;;;;;;;5096249;28;20448;-73
2021/03/14 00:58:10;;;;;;;1.70;1.20;;;;;;;;;;5092307;28;20469;-74
2021/03/14 01:00:38;;;;;;;1.60;1.30;;;;;;;;;;5088462;28;20459;-74
2021/03/14 01:03:08;;;;;;;3.00;1.70;;;;;;;;;;5083863;28;20457;-74
2021/03/14 01:05:35;;;;;;;1.77;1.00;;;;;;;;;;5084262;28;20459;-74
2021/03/14 01:08:03;;;;;;;1.30;1.10;;;;;;;;;;5093458;28;20487;-74
2021/03/14 01:10:30;;;;;;;1.50;1.00;;;;;;;;;;5083595;28;20489;-74
2021/03/14 01:12:59;;;;;;;1.20;0.80;;;;;;;;;;5078839;28;20472;-73
2021/03/14 01:15:32;;;;;;;1.30;0.60;;;;;;;;;;5077783;28;20469;-72
2021/03/14 01:17:59;;;;;;;1.30;0.60;;;;;;;;;;5076986;28;20870;-74
2021/03/14 01:20:27;;;;;;;1.10;0.57;;;;;;;;;;5076948;28;20477;-75
2021/03/14 01:22:58;;;;;;;1.83;0.60;;;;;;;;;;5079573;28;20462;-74
2021/03/14 01:25:26;;;;;;;0.93;0.47;;;;;;;;;;5083736;28;20515;-74
2021/03/14 01:27:54;;;;;;;0.97;0.50;;;;;;;;;;5092704;28;20551;-74
2021/03/14 01:30:24;;;;;;;1.33;0.90;;;;;;;;;;5094945;28;20457;-73
2021/03/14 01:32:51;;;;;;;5.13;3.73;;;;;;;;;;5082783;28;20469;-73
2021/03/14 01:35:20;;;;;;;1.20;0.60;;;;;;;;;;5089497;28;20896;-73
2021/03/14 01:37:48;;;;;;;1.30;0.57;;;;;;;;;;5084015;28;20467;-73
2021/03/14 01:40:20;;;;;;;1.47;0.50;;;;;;;;;;5097653;28;20446;-74
2021/03/14 01:42:48;;;;;;;1.93;1.27;;;;;;;;;;5098021;28;20524;-74
2021/03/14 01:45:28;;;;;;;3.03;1.13;;;;;;;;;;5092036;28;20487;-73
2021/03/14 01:48:06;;;;;;;5.30;4.13;;;;;;;;;;5087597;28;20499;-73
2021/03/14 01:50:34;;;;;;;3.53;2.53;;;;;;;;;;5088626;28;20470;-73
2021/03/14 01:53:02;;;;;;;0.97;0.50;;;;;;;;;;5098280;28;20459;-74
2021/03/14 01:55:33;;;;;;;1.50;0.70;;;;;;;;;;5098668;28;20470;-74
2021/03/14 01:58:00;;;;;;;1.30;0.73;;;;;;;;;;5098220;28;20470;-74
2021/03/14 02:00:29;;;;;;;1.47;0.67;;;;;;;;;;5097316;28;20457;-74
2021/03/14 02:03:05;;;;;;;1.60;0.83;;;;;;;;;;5092689;28;20876;-74
2021/03/14 02:05:41;;;;;;;14.13;13.10;;;;;;;;;;5095806;28;20534;-73
2021/03/14 02:08:08;;;;;;;4.47;0.70;;;;;;;;;;5099739;28;20791;-73
2021/03/14 02:10:42;;;;;;;2.53;0.53;;;;;;;;;;5103232;28;20762;-73
2021/03/14 02:13:15;;;;;;;1.23;0.53;;;;;;;;;;5100578;28;20463;-73
2021/03/14 02:15:45;;;;;;;5.00;2.10;;;;;;;;;;5100297;28;20456;-74
2021/03/14 02:18:15;;;;;;;1.43;0.60;;;;;;;;;;5100731;28;20887;-74
2021/03/14 02:20:47;;;;;;;3.77;0.80;;;;;;;;;;5099723;28;20469;-75
2021/03/14 02:23:29;;;;;;;1.90;0.80;;;;;;;;;;5098560;28;20477;-74
2021/03/14 02:26:01;;;;;;;1.20;0.67;;;;;;;;;;5088470;28;20443;-73
2021/03/14 02:28:29;;;;;;;1.30;0.80;;;;;;;;;;5100175;28;20536;-73
2021/03/14 02:30:57;;;;;;;1.90;0.80;;;;;;;;;;5084787;28;20452;-73
2021/03/14 02:33:26;;;;;;;1.40;0.70;;;;;;;;;;5080301;28;20465;-73
2021/03/14 02:35:54;;;;;;;25.73;13.83;;;;;;;;;;5081937;28;20473;-73
2021/03/14 02:38:25;;;;;;;2.87;1.40;;;;;;;;;;5080273;28;20932;-73
2021/03/14 02:40:58;;;;;;;4.63;1.10;;;;;;;;;;5081727;28;20461;-74
2021/03/14 02:43:26;;;;;;;4.07;1.40;;;;;;;;;;5098687;28;20552;-74
2021/03/14 02:45:55;;;;;;;2.80;1.17;;;;;;;;;;5088476;28;20455;-73
2021/03/14 02:48:25;;;;;;;4.73;1.20;;;;;;;;;;5090196;28;20725;-74
2021/03/14 02:50:55;;;;;;;9.73;4.17;;;;;;;;;;5097050;28;20522;-73
2021/03/14 02:53:23;;;;;;;3.27;1.30;;;;;;;;;;5099172;28;20541;-72
2021/03/14 02:55:54;;;;;;;3.70;1.57;;;;;;;;;;5088206;28;20449;-74
2021/03/14 02:58:32;;;;;;;6.03;3.17;;;;;;;;;;5091848;28;20445;-74
2021/03/14 03:01:03;;;;;;;7.40;2.23;;;;;;;;;;5101278;28;20461;-74
2021/03/14 03:03:31;;;;;;;3.80;1.77;;;;;;;;;;5091856;28;20544;-74
2021/03/14 03:06:01;;;;;;;5.30;2.03;;;;;;;;;;5089487;28;20574;-73
2021/03/14 03:08:32;;;;;;;3.77;1.70;;;;;;;;;;5089122;28;20758;-72
2021/03/14 03:11:00;;;;;;;2.67;1.00;;;;;;;;;;5096251;28;20462;-73
2021/03/14 03:13:29;;;;;;;2.67;1.07;;;;;;;;;;5083430;28;20461;-73
2021/03/14 03:15:58;;;;;;;1.40;0.70;;;;;;;;;;5101292;28;20456;-74
2021/03/14 03:18:35;;;;;;;1.47;1.00;;;;;;;;;;5085305;28;20877;-73
2021/03/14 03:21:08;;;;;;;1.57;0.60;;;;;;;;;;5080421;28;20751;-73
2021/03/14 03:23:39;;;;;;;5.07;0.90;;;;;;;;;;5081074;28;20460;-72
2021/03/14 03:26:11;;;;;;;2.27;1.20;;;;;;;;;;5079666;28;20510;-73
2021/03/14 03:28:46;;;;;;;4.47;0.87;;;;;;;;;;5080081;28;20527;-73
2021/03/14 03:31:13;;;;;;;1.67;0.80;;;;;;;;;;5078947;28;20540;-74
2021/03/14 03:33:44;;;;;;;5.23;1.77;;;;;;;;;;5082655;28;20559;-73
2021/03/14 03:36:19;;;;;;;1.40;0.70;;;;;;;;;;5088829;28;20480;-74
2021/03/14 03:38:47;;;;;;;1.80;1.10;;;;;;;;;;5099175;28;20467;-73
2021/03/14 03:41:15;;;;;;;2.70;1.40;;;;;;;;;;5098667;28;20443;-74
2021/03/14 03:43:44;;;;;;;3.87;1.73;;;;;;;;;;5100591;28;20524;-73
2021/03/14 03:46:16;;;;;;;3.67;2.30;;;;;;;;;;5099103;28;20465;-73
2021/03/14 03:48:46;;;;;;;14.50;2.13;;;;;;;;;;5098481;28;20468;-73
2021/03/14 03:51:15;;;;;;;7.10;1.53;;;;;;;;;;5098058;28;20470;-74
2021/03/14 03:53:43;;;;;;;4.63;2.20;;;;;;;;;;5080443;28;20480;-73
2021/03/14 03:56:11;;;;;;;5.53;2.13;;;;;;;;;;5078414;28;20869;-73
2021/03/14 03:58:38;;;;;;;4.13;2.10;;;;;;;;;;5093365;28;20852;-73
2021/03/14 04:01:06;;;;;;;5.10;1.87;;;;;;;;;;5097026;28;20460;-73
2021/03/14 04:03:38;;;;;;;2.33;1.50;;;;;;;;;;5098720;28;20465;-73
2021/03/14 04:06:06;;;;;;;9.70;2.07;;;;;;;;;;5097796;28;20455;-73
2021/03/14 04:08:34;;;;;;;4.30;1.60;;;;;;;;;;5097895;28;20474;-73
2021/03/14 04:11:06;;;;;;;8.30;2.60;;;;;;;;;;5098649;28;20945;-73
2021/03/14 04:13:34;;;;;;;3.40;2.77;;;;;;;;;;5097927;28;20470;-73
2021/03/14 04:18:50;;;;;;;5.20;2.30;;;;;;;;;;5080644;28;20484;-73
2021/03/14 04:21:20;;;;;;;7.70;2.23;;;;;;;;;;5097602;28;20856;-73
2021/03/14 04:23:48;;;;;;;12.00;3.20;;;;;;;;;;5082882;28;20454;-72
2021/03/14 04:26:17;;;;;;;11.50;2.60;;;;;;;;;;5078675;28;20460;-73
2021/03/14 04:28:45;;;;;;;5.30;2.23;;;;;;;;;;5077565;28;20458;-73
2021/03/14 04:31:13;;;;;;;9.80;2.70;;;;;;;;;;5078049;28;20465;-73
2021/03/14 04:33:43;;;;;;;3.87;2.93;;;;;;;;;;5091814;28;20492;-73
2021/03/14 04:36:11;;;;;;;7.03;4.83;;;;;;;;;;5079084;28;20473;-73
2021/03/14 04:38:43;;;;;;;9.33;3.00;;;;;;;;;;5077180;28;20564;-73
2021/03/14 04:41:11;;;;;;;6.30;2.70;;;;;;;;;;5077834;28;20457;-72
2021/03/14 04:43:39;;;;;;;9.50;1.93;;;;;;;;;;5077483;28;20523;-72
2021/03/14 04:46:12;;;;;;;6.33;2.77;;;;;;;;;;5078742;28;20498;-72
2021/03/14 04:48:39;;;;;;;7.90;2.60;;;;;;;;;;5076047;28;20522;-73
2021/03/14 04:51:07;;;;;;;5.33;2.23;;;;;;;;;;5079220;28;20742;-72
2021/03/14 04:53:35;;;;;;;14.67;3.30;;;;;;;;;;5079275;28;21071;-72
2021/03/14 04:56:03;;;;;;;6.00;3.23;;;;;;;;;;5077447;28;20468;-72
2021/03/14 04:58:37;;;;;;;4.17;2.57;;;;;;;;;;5082930;28;20541;-72
2021/03/14 05:01:06;;;;;;;10.87;3.10;;;;;;;;;;5079014;28;20472;-72
2021/03/14 05:03:33;;;;;;;3.10;1.83;;;;;;;;;;5077222;28;20714;-72
2021/03/14 05:06:01;;;;;;;5.47;2.50;;;;;;;;;;5078514;28;20764;-73
2021/03/14 05:08:30;;;;;;;10.63;3.73;;;;;;;;;;5077354;28;20735;-73
2021/03/14 05:10:58;;;;;;;5.97;3.23;;;;;;;;;;5085500;28;20549;-73
2021/03/14 05:13:26;;;;;;;7.80;3.23;;;;;;;;;;5098276;28;20445;-72
2021/03/14 05:16:01;;;;;;;6.73;2.30;;;;;;;;;;5091490;28;20526;-73
2021/03/14 05:18:30;;;;;;;3.07;1.80;;;;;;;;;;5090064;28;20577;-72
2021/03/14 05:21:03;;;;;;;4.33;2.40;;;;;;;;;;5079739;28;20475;-73
2021/03/14 05:23:32;;;;;;;8.80;2.97;;;;;;;;;;5076997;28;20495;-73
2021/03/14 05:26:06;;;;;;;9.73;3.77;;;;;;;;;;5080510;28;20474;-74
2021/03/14 05:28:50;;;;;;;4.80;2.10;;;;;;;;;;5078223;28;20488;-74
2021/03/14 05:31:35;;;;;;;6.53;3.73;;;;;;;;;;5091704;28;20804;-74
2021/03/14 05:34:04;;;;;;;9.70;2.80;;;;;;;;;;5094769;28;20456;-74
2021/03/14 05:36:31;;;;;;;3.53;1.50;;;;;;;;;;5097474;28;20626;-73
2021/03/14 05:38:59;;;;;;;3.70;1.90;;;;;;;;;;5102562;28;20793;-73
2021/03/14 05:41:32;;;;;;;5.83;2.00;;;;;;;;;;5102004;27;20461;-73
2021/03/14 05:44:02;;;;;;;4.90;2.30;;;;;;;;;;5081927;28;20516;-73
2021/03/14 05:46:29;;;;;;;4.33;3.13;;;;;;;;;;5094090;28;20464;-72
2021/03/14 05:48:58;;;;;;;3.20;1.93;;;;;;;;;;5100891;28;20452;-73
2021/03/14 05:51:27;;;;;;;6.50;2.10;;;;;;;;;;5103086;28;20484;-72
2021/03/14 05:53:56;;;;;;;5.87;2.37;;;;;;;;;;5099238;28;20444;-73
2021/03/14 05:56:23;;;;;;;3.27;1.47;;;;;;;;;;5101993;28;20473;-72
2021/03/14 05:58:51;;;;;;;7.13;2.40;;;;;;;;;;5101350;28;20782;-72
2021/03/14 06:01:20;;;;;;;7.70;3.00;;;;;;;;;;5101338;28;20460;-72
2021/03/14 06:03:48;;;;;;;7.83;2.23;;;;;;;;;;5101681;28;20456;-73
2021/03/14 06:06:15;;;;;;;3.80;1.77;;;;;;;;;;5101755;28;20493;-72
2021/03/14 06:08:42;;;;;;;6.97;2.07;;;;;;;;;;5100603;28;20459;-72
2021/03/14 06:11:11;;;;;;;4.13;2.07;;;;;;;;;;5102593;28;20461;-73
2021/03/14 06:13:38;;;;;;;8.00;2.00;;;;;;;;;;5083733;28;20454;-74
2021/03/14 06:16:06;;;;;;;7.30;3.00;;;;;;;;;;5081471;28;20533;-73
2021/03/14 06:18:35;;;;;;;9.50;2.60;;;;;;;;;;5080264;28;20544;-73
2021/03/14 06:21:20;;;;;;;5.37;2.70;;;;;;;;;;5080402;28;20456;-73
2021/03/14 06:23:57;;;;;;;5.00;1.87;;;;;;;;;;5080103;28;20732;-74
2021/03/14 06:26:41;;;;;;;14.97;3.43;;;;;;;;;;5080334;28;20467;-74
2021/03/14 06:29:30;;;;;;;9.30;2.53;;;;;;;;;;5078876;28;20865;-73
2021/03/14 06:32:07;;;;;;;3.93;2.27;;;;;;;;;;5081829;28;20501;-76
2021/03/14 06:34:57;;;;;;;5.53;2.23;;;;;;;;;;5101470;27;20853;-73
2021/03/14 06:37:33;;;;;;;11.43;2.53;;;;;;;;;;5087443;28;20482;-73
2021/03/14 06:40:15;;;;;;;4.53;2.47;;;;;;;;;;5078978;28;20492;-74
2021/03/14 06:42:43;;;;;;;10.00;2.90;;;;;;;;;;5080085;28;20969;-74
2021/03/14 06:45:12;;;;;;;9.07;3.00;;;;;;;;;;5079965;28;20463;-73
2021/03/14 06:47:41;;;;;;;6.03;2.90;;;;;;;;;;5077272;28;20470;-73
2021/03/14 06:50:12;;;;;;;6.90;2.47;;;;;;;;;;5057217;28;20478;-73
2021/03/14 06:52:48;;;;;;;8.47;2.47;;;;;;;;;;5062325;28;20823;-73
2021/03/14 06:55:37;;;;;;;6.80;1.97;;;;;;;;;;5059776;28;20469;-73
2021/03/14 06:58:35;;;;;;;8.03;2.07;;;;;;;;;;5058443;28;20513;-72
2021/03/14 07:01:20;;;;;;;7.77;4.07;;;;;;;;;;5016562;28;20457;-73
2021/03/14 07:04:09;;;;;;;;;;;;;;;;;;;;;
2021/03/14 07:06:44;;;;;;;9.87;2.67;;;;;;;;;;5059153;28;20757;-73
2021/03/14 07:09:29;;;;;;;10.00;2.87;;;;;;;;;;5060008;28;20551;-73
2021/03/14 07:12:01;;;;;;;4.93;1.43;;;;;;;;;;5062056;28;20503;-73
2021/03/14 07:14:34;;;;;;;9.03;2.63;;;;;;;;;;5080120;28;20735;-73
2021/03/14 07:17:17;;;;;;;12.63;2.50;;;;;;;;;;5079609;28;20477;-73
2021/03/14 07:19:55;;;;;;;7.93;2.57;;;;;;;;;;5073368;28;20466;-74
2021/03/14 07:22:22;;;;;;;5.03;2.67;;;;;;;;;;5060985;28;20457;-73
2021/03/14 07:24:54;;;;;;;12.23;4.03;;;;;;;;;;5063588;28;20461;-73
2021/03/14 07:27:26;;;;;;;10.23;3.63;;;;;;;;;;5078576;28;20958;-73
2021/03/14 07:29:56;;;;;;;6.07;2.60;;;;;;;;;;5078368;28;20537;-73
2021/03/14 07:32:27;;;;;;;18.53;3.70;;;;;;;;;;5080487;28;20484;-73
2021/03/14 07:34:58;;;;;;;7.13;2.27;;;;;;;;;;5078372;28;20465;-72
2021/03/14 07:37:31;;;;;;;6.90;3.37;;;;;;;;;;5070519;28;20488;-72
2021/03/14 07:39:59;;;;;;;6.90;2.27;;;;;;;;;;5059362;28;20567;-72
2021/03/14 07:42:27;;;;;;;10.90;3.90;;;;;;;;;;5058359;28;20966;-74
2021/03/14 07:44:54;;;;;;;7.27;2.23;;;;;;;;;;5068375;28;20864;-73
2021/03/14 07:47:22;;;;;;;4.67;2.00;;;;;;;;;;5078648;28;20475;-74
2021/03/14 07:49:52;;;;;;;8.77;2.70;;;;;;;;;;5080423;28;20867;-74
2021/03/14 07:52:26;;;;;;;2.50;1.70;;;;;;;;;;5079447;28;20463;-74
2021/03/14 07:55:09;;;;;;;10.60;2.93;;;;;;;;;;5077308;28;20474;-73
2021/03/14 07:57:48;;;;;;;4.53;1.83;;;;;;;;;;5079997;28;20905;-73
2021/03/14 08:00:29;;;;;;;5.50;2.60;;;;;;;;;;5078796;28;20871;-72
2021/03/14 08:03:01;;;;;;;8.10;2.40;;;;;;;;;;5078100;28;20462;-73
2021/03/14 08:05:51;;;;;;;5.67;2.20;;;;;;;;;;5077281;28;20502;-73
2021/03/14 08:08:37;;;;;;;6.40;2.23;;;;;;;;;;5063550;28;20531;-73
2021/03/14 08:11:09;;;;;;;5.67;2.43;;;;;;;;;;5058508;28;20741;-74
2021/03/14 08:16:45;;;;;;;6.97;2.67;;;;;;;;;;5047284;28;20458;-73
2021/03/14 08:19:17;;;;;;;7.50;2.50;;;;;;;;;;5060949;28;20468;-73
2021/03/14 08:24:49;;;;;;;3.67;1.83;;;;;;;;;;5055633;28;20496;-73
2021/03/14 08:27:18;;;;;;;7.40;2.47;;;;;;;;;;5065792;28;20957;-73
2021/03/14 08:29:50;;;;;;;4.83;2.30;;;;;;;;;;5065334;28;21037;-73
2021/03/14 08:32:28;;;;;;;6.90;2.70;;;;;;;;;;5071568;28;20459;-73
2021/03/14 08:35:09;;;;;;;4.73;2.30;;;;;;;;;;5060425;28;20509;-73
2021/03/14 08:37:40;;;;;;;5.87;2.23;;;;;;;;;;5058682;28;20557;-74
2021/03/14 08:40:19;;;;;;;6.57;2.67;;;;;;;;;;5057634;28;20487;-72
2021/03/14 08:42:56;;;;;;;5.60;2.80;;;;;;;;;;5062773;28;20476;-74
2021/03/14 08:45:34;;;;;;;5.50;2.40;;;;;;;;;;5062761;28;20525;-73
2021/03/14 08:48:06;;;;;;;3.90;1.50;;;;;;;;;;5057813;28;20658;-73
2021/03/14 08:50:35;;;;;;;6.40;2.23;;;;;;;;;;5058797;28;20456;-74
2021/03/14 08:53:02;;;;;;;8.03;2.30;;;;;;;;;;5069832;28;20467;-74
2021/03/14 08:55:31;;;;;;;3.80;2.03;;;;;;;;;;5072360;28;20488;-73
2021/03/14 09:01:07;;;;;;;4.37;1.77;;;;;;;;;;5074744;28;20454;-73
2021/03/14 09:06:36;;;;;;;6.70;2.20;;;;;;;;;;5061977;28;20526;-73
2021/03/14 09:09:10;;;;;;;5.53;1.90;;;;;;;;;;5076493;28;20457;-73
2021/03/14 09:11:42;;;;;;;9.10;3.00;;;;;;;;;;5065663;28;20451;-73
2021/03/14 09:14:21;;;;;;;3.70;2.40;;;;;;;;;;5057433;28;20460;-73
2021/03/14 09:16:52;;;;;;;3.73;2.00;;;;;;;;;;5056322;28;20853;-73
2021/03/14 09:19:30;;;;;;;3.50;2.27;;;;;;;;;;5055461;28;20463;-72
2021/03/14 09:21:59;;;;;;;12.13;2.13;;;;;;;;;;5065198;28;20880;-72
2021/03/14 09:24:46;;;;;;;4.23;1.77;;;;;;;;;;5069929;28;20802;-73
2021/03/14 09:27:18;;;;;;;4.77;2.00;;;;;;;;;;5055926;28;20446;-73
2021/03/14 09:29:49;;;;;;;3.00;2.20;;;;;;;;;;5068233;28;20464;-72
2021/03/14 09:32:23;;;;;;;3.40;1.63;;;;;;;;;;5058835;28;20445;-72
2021/03/14 09:34:52;;;;;;;7.17;1.87;;;;;;;;;;5056553;28;20466;-72
2021/03/14 09:37:34;;;;;;;2.57;1.90;;;;;;;;;;5058412;28;20489;-73
2021/03/14 09:40:15;;;;;;;12.17;2.50;;;;;;;;;;5055729;28;20466;-73
2021/03/14 09:42:46;;;;;;;6.00;1.60;;;;;;;;;;5066571;28;20883;-73
2021/03/14 09:45:16;;;;;;;8.83;1.70;;;;;;;;;;5071218;28;20888;-73
2021/03/14 09:48:03;;;;;;;5.40;1.73;;;;;;;;;;5070441;28;20471;-73
2021/03/14 09:50:34;;;;;;;5.60;1.43;;;;;;;;;;5059951;28;20939;-73
2021/03/14 09:53:04;;;;;;;6.13;1.63;;;;;;;;;;5065449;28;20465;-73
2021/03/14 09:55:35;;;;;;;2.40;1.13;;;;;;;;;;5058323;28;20470;-73
2021/03/14 09:58:04;;;;;;;7.23;2.37;;;;;;;;;;5064202;28;20499;-73
2021/03/14 10:00:39;;;;;;;5.43;2.40;;;;;;;;;;5076286;28;20467;-72
2021/03/14 10:03:12;;;;;;;5.50;2.70;;;;;;;;;;5076812;28;20822;-72
2021/03/14 10:05:52;;;;;;;7.10;1.00;;;;;;;;;;5078804;28;20488;-72
2021/03/14 10:08:24;;;;;;;8.70;2.33;;;;;;;;;;5055881;28;20770;-72
2021/03/14 10:10:52;;;;;;;4.80;1.77;;;;;;;;;;5063546;28;20546;-72
2021/03/14 10:13:31;;;;;;;6.93;1.47;;;;;;;;;;5069563;28;20454;-73
2021/03/14 10:16:03;;;;;;;6.60;2.03;;;;;;;;;;5060634;28;20847;-73
2021/03/14 10:18:31;;;;;;;8.43;2.60;;;;;;;;;;5059884;28;20478;-74
2021/03/14 10:21:19;;;;;;;11.47;3.70;;;;;;;;;;5057347;28;20463;-73
2021/03/14 10:23:49;;;;;;;6.83;3.60;;;;;;;;;;5066744;28;20456;-73
2021/03/14 10:26:17;;;;;;;6.23;1.40;;;;;;;;;;5069028;28;20498;-73
2021/03/14 10:28:47;;;;;;;1.83;0.80;;;;;;;;;;5060796;28;20449;-73
2021/03/14 10:31:16;;;;;;;2.23;1.20;;;;;;;;;;5066435;28;20476;-73
2021/03/14 10:33:50;;;;;;;3.20;1.37;;;;;;;;;;5064489;28;20471;-73
2021/03/14 10:36:19;;;;;;;1.70;0.80;;;;;;;;;;5064930;28;20887;-74
2021/03/14 10:38:52;;;;;;;6.87;1.73;;;;;;;;;;5065407;28;20488;-74
2021/03/14 10:41:24;;;;;;;6.23;2.10;;;;;;;;;;5063567;28;20450;-73
2021/03/14 10:43:59;;;;;;;12.30;1.47;;;;;;;;;;5059729;28;20454;-76
2021/03/14 10:46:37;;;;;;;3.87;1.47;;;;;;;;;;5058328;28;20458;-75
2021/03/14 10:49:15;;;;;;;2.57;1.17;;;;;;;;;;5068574;28;20459;-73
2021/03/14 10:51:46;;;;;;;11.57;2.67;;;;;;;;;;5077934;28;20466;-72
2021/03/14 10:54:15;;;;;;;7.00;1.00;;;;;;;;;;5079268;28;20814;-73
2021/03/14 10:57:11;;;;;;;9.47;1.73;;;;;;;;;;5063090;28;20780;-73
2021/03/14 10:59:42;;;;;;;7.20;2.27;;;;;;;;;;5063159;28;20459;-73
2021/03/14 11:02:14;;;;;;;4.87;1.90;;;;;;;;;;5074871;28;20472;-73
2021/03/14 11:04:41;;;;;;;4.00;2.13;;;;;;;;;;5069635;28;20457;-73
2021/03/14 11:07:30;;;;;;;4.37;1.80;;;;;;;;;;5064636;28;20475;-73
2021/03/14 11:10:15;;;;;;;4.70;1.50;;;;;;;;;;5070555;28;20461;-73
2021/03/14 11:12:50;;;;;;;4.40;1.63;;;;;;;;;;5059224;28;20487;-74
2021/03/14 11:15:22;;;;;;;4.13;1.10;;;;;;;;;;5057860;28;20457;-73
2021/03/14 11:17:50;;;;;;;7.13;2.10;;;;;;;;;;5059656;28;20497;-74
2021/03/14 11:20:21;;;;;;;4.30;0.87;;;;;;;;;;5057637;28;20876;-74
2021/03/14 11:22:54;;;;;;;16.67;2.43;;;;;;;;;;5060223;28;20470;-73
2021/03/14 11:25:22;;;;;;;8.27;2.37;;;;;;;;;;5069613;28;20436;-74
2021/03/14 11:28:08;;;;;;;1.57;0.80;;;;;;;;;;5061224;28;20804;-73
2021/03/14 11:30:37;;;;;;;7.00;1.40;;;;;;;;;;5068905;28;20468;-75
2021/03/14 11:33:06;;;;;;;4.70;1.20;;;;;;;;;;5058756;28;20450;-75
2021/03/14 11:35:38;;;;;;;5.00;1.57;;;;;;;;;;5058395;28;20470;-75
2021/03/14 11:38:09;;;;;;;3.77;1.63;;;;;;;;;;5069703;28;20542;-73
2021/03/14 11:40:44;;;;;;;8.03;1.20;;;;;;;;;;5071134;28;20441;-75
2021/03/14 11:43:33;;;;;;;6.47;1.90;;;;;;;;;;5068245;28;20455;-74
2021/03/14 11:46:11;;;;;;;3.70;1.10;;;;;;;;;;5064636;28;20915;-74
2021/03/14 11:51:33;;;;;;;5.57;1.03;;;;;;;;;;5053196;28;20469;-75
2021/03/14 11:54:12;;;;;;;6.30;1.60;;;;;;;;;;5067254;28;20499;-73
2021/03/14 11:56:53;;;;;;;4.87;1.50;;;;;;;;;;5069305;28;20931;-73
2021/03/14 11:59:28;;;;;;;6.40;1.80;;;;;;;;;;5066732;28;20477;-73
2021/03/14 12:04:48;;;;;;;4.47;1.17;;;;;;;;;;5071603;28;20437;-74
2021/03/14 12:07:30;;;;;;;;;;;;;;;;;;;;;
2021/03/14 12:10:00;;;;;;;2.83;1.13;;;;;;;;;;5058620;28;20849;-75
2021/03/14 12:12:52;;;;;;;1.97;0.77;;;;;;;;;;5067514;28;20549;-75
2021/03/14 12:15:25;;;;;;;9.30;1.60;;;;;;;;;;5065182;28;20456;-74
2021/03/14 12:17:54;;;;;;;11.80;1.57;;;;;;;;;;5064379;28;20567;-74
2021/03/14 12:20:26;;;;;;;3.33;1.47;;;;;;;;;;5065812;28;20472;-73
2021/03/14 12:23:02;;;;;;;4.90;1.00;;;;;;;;;;5069926;28;20456;-73
2021/03/14 12:25:44;;;;;;;5.70;1.20;;;;;;;;;;5069359;28;20466;-73
2021/03/14 12:28:44;;;;;;;4.73;1.73;;;;;;;;;;5067092;28;20452;-74
2021/03/14 12:31:31;;;;;;;4.70;1.30;;;;;;;;;;5072033;28;20532;-75
2021/03/14 12:34:05;;;;;;;2.23;0.73;;;;;;;;;;5069430;28;20461;-74
2021/03/14 12:39:22;;;;;;;2.27;0.83;;;;;;;;;;5071004;28;20483;-74
2021/03/14 12:42:01;;;;;;;1.50;0.70;;;;;;;;;;5068548;28;20529;-73
2021/03/14 12:44:37;;;;;;;1.30;0.60;;;;;;;;;;5064934;28;20450;-74
2021/03/14 12:47:09;;;;;;;4.70;0.57;;;;;;;;;;5066790;28;20732;-74
2021/03/14 12:49:42;;;;;;;2.33;0.70;;;;;;;;;;5069938;28;20451;-74
2021/03/14 12:52:13;;;;;;;1.57;0.60;;;;;;;;;;5069228;28;20524;-74
2021/03/14 12:54:43;;;;;;;1.40;0.60;;;;;;;;;;5066347;28;20849;-73
2021/03/14 12:57:16;;;;;;;1.93;0.67;;;;;;;;;;5068710;28;20947;-73
2021/03/14 12:59:48;;;;;;;1.20;0.50;;;;;;;;;;5065727;28;20453;-74
2021/03/14 13:02:29;;;;;;;3.10;0.57;;;;;;;;;;5069852;28;20469;-73
2021/03/14 13:05:05;;;;;;;1.20;0.50;;;;;;;;;;5066944;28;20449;-73
2021/03/14 13:10:54;;;;;;;4.30;0.70;;;;;;;;;;5061459;28;21154;-74
2021/03/14 13:13:43;;;;;;;2.93;0.73;;;;;;;;;;5058242;28;20722;-73
2021/03/14 13:16:13;;;;;;;3.07;0.80;;;;;;;;;;5060521;28;20457;-74
2021/03/14 13:18:41;;;;;;;1.57;0.70;;;;;;;;;;5065253;28;20506;-74
2021/03/14 13:21:14;;;;;;;3.80;1.17;;;;;;;;;;5063692;28;20546;-75
2021/03/14 13:23:42;;;;;;;6.37;1.10;;;;;;;;;;5055208;28;20455;-74
2021/03/14 13:26:10;;;;;;;3.33;1.00;;;;;;;;;;5057212;28;20454;-74
2021/03/14 13:28:39;;;;;;;2.00;0.60;;;;;;;;;;5057209;28;20883;-74
2021/03/14 13:31:08;;;;;;;2.17;0.90;;;;;;;;;;5061272;28;20460;-74
2021/03/14 13:33:36;;;;;;;3.57;1.00;;;;;;;;;;5059256;28;20800;-74
2021/03/14 13:36:08;;;;;;;4.97;1.20;;;;;;;;;;5055914;28;20459;-74
2021/03/14 13:38:38;;;;;;;3.20;1.00;;;;;;;;;;5055692;28;20852;-75
2021/03/14 13:41:06;;;;;;;2.37;0.70;;;;;;;;;;5056280;28;20470;-73
2021/03/14 13:43:44;;;;;;;5.70;1.57;;;;;;;;;;5058568;28;20463;-75
2021/03/14 13:46:20;;;;;;;1.90;0.97;;;;;;;;;;5064225;28;20509;-76
2021/03/14 13:48:53;;;;;;;5.73;0.97;;;;;;;;;;5053568;28;20443;-72
2021/03/14 13:51:29;;;;;;;3.20;1.53;;;;;;;;;;5058181;28;20442;-74
2021/03/14 13:54:16;;;;;;;;;;;;;;;;;;;;;
2021/03/14 13:56:49;;;;;;;6.70;1.70;;;;;;;;;;5053720;28;20445;-74
2021/03/14 13:59:26;;;;;;;5.70;1.57;;;;;;;;;;5066200;28;20762;-74
2021/03/14 14:01:54;;;;;;;4.47;1.13;;;;;;;;;;5080482;28;20464;-75
2021/03/14 14:04:23;;;;;;;2.23;0.90;;;;;;;;;;5079334;28;20720;-74
2021/03/14 14:06:53;;;;;;;2.00;1.50;;;;;;;;;;5068650;28;20467;-75
2021/03/14 14:09:21;;;;;;;5.87;1.00;;;;;;;;;;5079073;28;20460;-74
2021/03/14 14:11:48;;;;;;;3.00;1.27;;;;;;;;;;5060095;28;20470;-74
2021/03/14 14:14:16;;;;;;;3.87;1.10;;;;;;;;;;5060748;28;20541;-75
2021/03/14 14:16:44;;;;;;;3.13;0.83;;;;;;;;;;5060608;28;20465;-74
2021/03/14 14:19:12;;;;;;;4.10;1.37;;;;;;;;;;5065610;28;20475;-74
2021/03/14 14:21:40;;;;;;;2.27;0.70;;;;;;;;;;5074682;28;20528;-74
2021/03/14 14:24:09;;;;;;;3.50;1.20;;;;;;;;;;5061366;28;20441;-75
2021/03/14 14:26:37;;;;;;;3.40;0.60;;;;;;;;;;5066343;28;20456;-73
2021/03/14 14:29:06;;;;;;;2.80;1.37;;;;;;;;;;5072387;28;20890;-75
2021/03/14 14:31:34;;;;;;;2.10;0.80;;;;;;;;;;5064176;28;20495;-74
2021/03/14 14:34:13;;;;;;;3.63;1.30;;;;;;;;;;5064648;28;20481;-73
2021/03/14 14:36:45;;;;;;;1.97;0.93;;;;;;;;;;5078697;28;20514;-75
2021/03/14 14:39:13;;;;;;;3.67;1.20;;;;;;;;;;5079132;28;20990;-74
2021/03/14 14:41:41;;;;;;;1.50;0.67;;;;;;;;;;5069962;28;20454;-74
2021/03/14 14:44:08;;;;;;;3.63;0.97;;;;;;;;;;5058222;28;20466;-74
2021/03/14 14:46:36;;;;;;;5.13;0.90;;;;;;;;;;5059252;28;20516;-74
2021/03/14 14:49:04;;;;;;;2.03;0.87;;;;;;;;;;5058481;28;20441;-73
2021/03/14 14:51:33;;;;;;;6.30;1.10;;;;;;;;;;5069018;28;20869;-74
2021/03/14 14:54:03;;;;;;;3.43;1.17;;;;;;;;;;5069849;28;20457;-75
2021/03/14 14:56:33;;;;;;;4.03;1.27;;;;;;;;;;5061922;28;21035;-74
2021/03/14 14:59:05;;;;;;;3.67;0.90;;;;;;;;;;5062080;28;20487;-74
2021/03/14 15:01:38;;;;;;;3.13;0.70;;;;;;;;;;5059391;28;20566;-76
2021/03/14 15:04:11;;;;;;;1.60;0.70;;;;;;;;;;5060141;28;20461;-74
2021/03/14 15:06:38;;;;;;;2.80;0.90;;;;;;;;;;5069823;28;20878;-75
2021/03/14 15:09:18;;;;;;;2.87;1.10;;;;;;;;;;5079926;28;20951;-74
2021/03/14 15:11:49;;;;;;;3.00;0.70;;;;;;;;;;5067132;28;20460;-74
2021/03/14 15:14:19;;;;;;;3.00;1.13;;;;;;;;;;5066499;28;20458;-74
2021/03/14 15:16:48;;;;;;;6.83;0.70;;;;;;;;;;5063461;28;20741;-74
2021/03/14 15:19:16;;;;;;;2.97;1.40;;;;;;;;;;5060398;28;20493;-74
2021/03/14 15:21:44;;;;;;;1.70;0.87;;;;;;;;;;5062324;28;20465;-75
2021/03/14 15:24:11;;;;;;;6.83;1.47;;;;;;;;;;5062941;28;20737;-75
2021/03/14 15:26:42;;;;;;;4.30;1.90;;;;;;;;;;5078016;28;20459;-74
2021/03/14 15:29:24;;;;;;;3.90;1.20;;;;;;;;;;5071953;28;20463;-74
2021/03/14 15:32:22;;;;;;;3.40;0.90;;;;;;;;;;5080457;28;20457;-75
2021/03/14 15:34:53;;;;;;;3.37;0.90;;;;;;;;;;5077742;28;20461;-76
2021/03/14 15:37:39;;;;;;;5.10;1.13;;;;;;;;;;5068259;28;20726;-76
2021/03/14 15:40:09;;;;;;;2.87;1.00;;;;;;;;;;5057694;28;20490;-74
2021/03/14 15:42:42;;;;;;;3.20;1.43;;;;;;;;;;5058096;28;20463;-76